sensor_id;sensor_type;location;lat;lon;timestamp;temperature;humidity
5796;DHT22;2924;51.458;7.046;2023-02-03T00:02:19;7.90;99.90
5796;DHT22;2924;51.458;7.046;2023-02-03T00:04:45;7.90;99.90
5796;DHT22;2924;51.458;7.046;2023-02-03T00:07:11;8.00;99.90
5796;DHT22;2924;51.458;7.046;2023-02-03T00:09:38;8.00;99.90
5796;DHT22;2924;51.458;7.046;2023-02-03T00:12:04;8.00;99.90
5796;DHT22;2924;51.458;7.046;2023-02-03T00:14:29;8.00;99.90
5796;DHT22;2924;51.458;7.046;2023-02-03T00:16:55;8.00;99.90
5796;DHT22;2924;51.458;7.046;2023-02-03T00:19:21;8.00;99.90
5796;DHT22;2924;51.458;7.046;2023-02-03T00:21:46;8.00;99.90
5796;DHT22;2924;51.458;7.046;2023-02-03T00:24:12;8.00;99.90
5796;DHT22;2924;51.458;7.046;2023-02-03T00:26:41;8.00;99.90
5796;DHT22;2924;51.458;7.046;2023-02-03T00:29:07;8.00;99.90
5796;DHT22;2924;51.458;7.046;2023-02-03T00:31:34;8.00;99.90
5796;DHT22;2924;51.458;7.046;2023-02-03T00:33:59;8.00;99.90
5796;DHT22;2924;51.458;7.046;2023-02-03T00:36:26;8.00;99.90
5796;DHT22;2924;51.458;7.046;2023-02-03T00:38:52;8.10;99.90
5796;DHT22;2924;51.458;7.046;2023-02-03T00:41:18;8.10;99.90
5796;DHT22;2924;51.458;7.046;2023-02-03T00:43:44;8.00;99.90
5796;DHT22;2924;51.458;7.046;2023-02-03T00:46:09;8.00;99.90
5796;DHT22;2924;51.458;7.046;2023-02-03T00:48:35;8.10;99.90
5796;DHT22;2924;51.458;7.046;2023-02-03T00:51:01;8.00;99.90
5796;DHT22;2924;51.458;7.046;2023-02-03T00:53:26;8.00;99.90
5796;DHT22;2924;51.458;7.046;2023-02-03T00:55:52;8.00;99.90
5796;DHT22;2924;51.458;7.046;2023-02-03T00:58:18;8.00;99.90
5796;DHT22;2924;51.458;7.046;2023-02-03T01:00:43;8.00;99.90
5796;DHT22;2924;51.458;7.046;2023-02-03T01:03:09;8.00;99.90
5796;DHT22;2924;51.458;7.046;2023-02-03T01:05:35;8.00;99.90
5796;DHT22;2924;51.458;7.046;2023-02-03T01:08:01;8.10;99.90
5796;DHT22;2924;51.458;7.046;2023-02-03T01:10:27;8.10;99.90
5796;DHT22;2924;51.458;7.046;2023-02-03T01:12:53;8.10;99.90
5796;DHT22;2924;51.458;7.046;2023-02-03T01:15:19;8.10;99.90
5796;DHT22;2924;51.458;7.046;2023-02-03T01:17:45;8.10;99.90
5796;DHT22;2924;51.458;7.046;2023-02-03T01:20:10;8.10;99.90
5796;DHT22;2924;51.458;7.046;2023-02-03T01:22:38;8.10;99.90
5796;DHT22;2924;51.458;7.046;2023-02-03T01:25:04;8.20;99.90
5796;DHT22;2924;51.458;7.046;2023-02-03T01:27:31;8.20;99.90
5796;DHT22;2924;51.458;7.046;2023-02-03T01:29:57;8.20;99.90
5796;DHT22;2924;51.458;7.046;2023-02-03T01:32:23;8.20;99.90
5796;DHT22;2924;51.458;7.046;2023-02-03T01:34:48;8.20;99.90
5796;DHT22;2924;51.458;7.046;2023-02-03T01:37:14;8.10;99.90
5796;DHT22;2924;51.458;7.046;2023-02-03T01:39:42;8.10;99.90
5796;DHT22;2924;51.458;7.046;2023-02-03T01:42:12;8.10;99.90
5796;DHT22;2924;51.458;7.046;2023-02-03T01:47:35;8.10;99.90
5796;DHT22;2924;51.458;7.046;2023-02-03T01:50:24;8.20;99.90
5796;DHT22;2924;51.458;7.046;2023-02-03T01:52:58;8.10;99.90
5796;DHT22;2924;51.458;7.046;2023-02-03T01:55:36;8.20;99.90
5796;DHT22;2924;51.458;7.046;2023-02-03T01:58:17;8.10;99.90
5796;DHT22;2924;51.458;7.046;2023-02-03T02:00:46;8.20;99.90
5796;DHT22;2924;51.458;7.046;2023-02-03T02:03:12;8.20;99.90
5796;DHT22;2924;51.458;7.046;2023-02-03T02:05:55;8.20;99.90
5796;DHT22;2924;51.458;7.046;2023-02-03T02:08:23;8.10;99.90
5796;DHT22;2924;51.458;7.046;2023-02-03T02:10:49;8.20;99.90
5796;DHT22;2924;51.458;7.046;2023-02-03T02:13:16;8.20;99.90
5796;DHT22;2924;51.458;7.046;2023-02-03T02:24:24;8.10;99.90
5796;DHT22;2924;51.458;7.046;2023-02-03T02:27:08;8.20;99.90
5796;DHT22;2924;51.458;7.046;2023-02-03T02:32:04;8.10;99.90
5796;DHT22;2924;51.458;7.046;2023-02-03T02:42:41;8.20;99.90
5796;DHT22;2924;51.458;7.046;2023-02-03T02:45:20;8.20;99.90
5796;DHT22;2924;51.458;7.046;2023-02-03T02:47:47;8.10;99.90
5796;DHT22;2924;51.458;7.046;2023-02-03T02:50:19;8.10;99.90
5796;DHT22;2924;51.458;7.046;2023-02-03T02:52:48;8.10;99.90
5796;DHT22;2924;51.458;7.046;2023-02-03T02:55:22;8.10;99.90
5796;DHT22;2924;51.458;7.046;2023-02-03T02:57:50;8.10;99.90
5796;DHT22;2924;51.458;7.046;2023-02-03T03:00:16;8.10;99.90
5796;DHT22;2924;51.458;7.046;2023-02-03T03:02:42;8.10;99.90
5796;DHT22;2924;51.458;7.046;2023-02-03T03:05:09;8.10;99.90
5796;DHT22;2924;51.458;7.046;2023-02-03T03:07:44;8.10;99.90
5796;DHT22;2924;51.458;7.046;2023-02-03T03:10:15;8.00;99.90
5796;DHT22;2924;51.458;7.046;2023-02-03T03:12:49;8.00;99.90
5796;DHT22;2924;51.458;7.046;2023-02-03T03:15:21;8.00;99.90
5796;DHT22;2924;51.458;7.046;2023-02-03T03:17:53;8.00;99.90
5796;DHT22;2924;51.458;7.046;2023-02-03T03:20:24;8.00;99.90
5796;DHT22;2924;51.458;7.046;2023-02-03T03:23:02;8.00;99.90
5796;DHT22;2924;51.458;7.046;2023-02-03T03:25:44;8.10;99.90
5796;DHT22;2924;51.458;7.046;2023-02-03T03:28:20;8.10;99.90
5796;DHT22;2924;51.458;7.046;2023-02-03T03:30:48;8.00;99.90
5796;DHT22;2924;51.458;7.046;2023-02-03T03:33:14;8.10;99.90
5796;DHT22;2924;51.458;7.046;2023-02-03T03:35:46;8.10;99.90
5796;DHT22;2924;51.458;7.046;2023-02-03T03:38:29;8.10;99.90
5796;DHT22;2924;51.458;7.046;2023-02-03T03:41:07;8.00;99.90
5796;DHT22;2924;51.458;7.046;2023-02-03T03:43:38;8.00;99.90
5796;DHT22;2924;51.458;7.046;2023-02-03T03:46:13;8.10;99.90
5796;DHT22;2924;51.458;7.046;2023-02-03T03:48:53;8.10;99.90
5796;DHT22;2924;51.458;7.046;2023-02-03T03:51:25;8.10;99.90
5796;DHT22;2924;51.458;7.046;2023-02-03T03:53:53;8.10;99.90
5796;DHT22;2924;51.458;7.046;2023-02-03T03:56:24;8.10;99.90
5796;DHT22;2924;51.458;7.046;2023-02-03T03:58:52;8.10;99.90
5796;DHT22;2924;51.458;7.046;2023-02-03T04:01:19;8.10;99.90
5796;DHT22;2924;51.458;7.046;2023-02-03T04:03:53;8.10;99.90
5796;DHT22;2924;51.458;7.046;2023-02-03T04:06:20;8.10;99.90
5796;DHT22;2924;51.458;7.046;2023-02-03T04:08:45;8.10;99.90
5796;DHT22;2924;51.458;7.046;2023-02-03T04:11:11;8.10;99.90
5796;DHT22;2924;51.458;7.046;2023-02-03T04:13:57;8.10;99.90
5796;DHT22;2924;51.458;7.046;2023-02-03T04:16:22;8.20;99.90
5796;DHT22;2924;51.458;7.046;2023-02-03T04:18:48;8.20;99.90
5796;DHT22;2924;51.458;7.046;2023-02-03T04:21:13;8.10;99.90
5796;DHT22;2924;51.458;7.046;2023-02-03T04:23:39;8.10;99.90
5796;DHT22;2924;51.458;7.046;2023-02-03T04:26:05;8.10;99.90
5796;DHT22;2924;51.458;7.046;2023-02-03T04:28:30;8.10;99.90
5796;DHT22;2924;51.458;7.046;2023-02-03T04:30:59;8.20;99.90
5796;DHT22;2924;51.458;7.046;2023-02-03T04:33:25;8.20;99.90
5796;DHT22;2924;51.458;7.046;2023-02-03T04:35:50;8.20;99.90
5796;DHT22;2924;51.458;7.046;2023-02-03T04:38:16;8.20;99.90
5796;DHT22;2924;51.458;7.046;2023-02-03T04:40:42;8.20;99.90
5796;DHT22;2924;51.458;7.046;2023-02-03T04:43:10;8.20;99.90
5796;DHT22;2924;51.458;7.046;2023-02-03T04:45:36;8.20;99.90
5796;DHT22;2924;51.458;7.046;2023-02-03T04:48:02;8.20;99.90
5796;DHT22;2924;51.458;7.046;2023-02-03T04:50:29;8.20;99.90
5796;DHT22;2924;51.458;7.046;2023-02-03T04:52:55;8.20;99.90
5796;DHT22;2924;51.458;7.046;2023-02-03T04:55:24;8.20;99.90
5796;DHT22;2924;51.458;7.046;2023-02-03T04:57:58;8.20;99.90
5796;DHT22;2924;51.458;7.046;2023-02-03T05:00:25;8.20;99.90
5796;DHT22;2924;51.458;7.046;2023-02-03T05:02:51;8.30;99.90
5796;DHT22;2924;51.458;7.046;2023-02-03T05:05:17;8.20;99.90
5796;DHT22;2924;51.458;7.046;2023-02-03T05:07:42;8.20;99.90
5796;DHT22;2924;51.458;7.046;2023-02-03T05:10:08;8.20;99.90
5796;DHT22;2924;51.458;7.046;2023-02-03T05:12:34;8.20;99.90
5796;DHT22;2924;51.458;7.046;2023-02-03T05:15:00;8.20;99.90
5796;DHT22;2924;51.458;7.046;2023-02-03T05:17:25;8.20;99.90
5796;DHT22;2924;51.458;7.046;2023-02-03T05:19:51;8.20;99.90
5796;DHT22;2924;51.458;7.046;2023-02-03T05:22:16;8.20;99.90
5796;DHT22;2924;51.458;7.046;2023-02-03T05:24:42;8.10;99.90
5796;DHT22;2924;51.458;7.046;2023-02-03T05:27:08;8.20;99.90
5796;DHT22;2924;51.458;7.046;2023-02-03T05:29:33;8.20;99.90
5796;DHT22;2924;51.458;7.046;2023-02-03T05:31:59;8.10;99.90
5796;DHT22;2924;51.458;7.046;2023-02-03T05:34:25;8.10;99.90
5796;DHT22;2924;51.458;7.046;2023-02-03T05:36:50;8.20;99.90
5796;DHT22;2924;51.458;7.046;2023-02-03T05:39:16;8.20;99.90
5796;DHT22;2924;51.458;7.046;2023-02-03T05:41:42;8.20;99.90
5796;DHT22;2924;51.458;7.046;2023-02-03T05:44:26;8.10;99.90
5796;DHT22;2924;51.458;7.046;2023-02-03T05:46:55;8.20;99.90
5796;DHT22;2924;51.458;7.046;2023-02-03T05:49:21;8.20;99.90
5796;DHT22;2924;51.458;7.046;2023-02-03T05:51:49;8.20;99.90
5796;DHT22;2924;51.458;7.046;2023-02-03T05:54:15;8.20;99.90
5796;DHT22;2924;51.458;7.046;2023-02-03T05:56:40;8.20;99.90
5796;DHT22;2924;51.458;7.046;2023-02-03T05:59:07;8.20;99.90
5796;DHT22;2924;51.458;7.046;2023-02-03T06:01:33;8.20;99.90
5796;DHT22;2924;51.458;7.046;2023-02-03T06:04:00;8.20;99.90
5796;DHT22;2924;51.458;7.046;2023-02-03T06:06:26;8.20;99.90
5796;DHT22;2924;51.458;7.046;2023-02-03T06:08:58;8.20;99.90
5796;DHT22;2924;51.458;7.046;2023-02-03T06:11:24;8.20;99.90
5796;DHT22;2924;51.458;7.046;2023-02-03T06:13:50;8.20;99.90
5796;DHT22;2924;51.458;7.046;2023-02-03T06:16:16;8.20;99.90
5796;DHT22;2924;51.458;7.046;2023-02-03T06:18:42;8.30;99.90
5796;DHT22;2924;51.458;7.046;2023-02-03T06:21:07;8.20;99.90
5796;DHT22;2924;51.458;7.046;2023-02-03T06:23:33;8.30;99.90
5796;DHT22;2924;51.458;7.046;2023-02-03T06:25:58;8.30;99.90
5796;DHT22;2924;51.458;7.046;2023-02-03T06:28:26;8.30;99.90
5796;DHT22;2924;51.458;7.046;2023-02-03T06:30:52;8.30;99.90
5796;DHT22;2924;51.458;7.046;2023-02-03T06:33:18;8.30;99.90
5796;DHT22;2924;51.458;7.046;2023-02-03T06:35:44;8.30;99.90
5796;DHT22;2924;51.458;7.046;2023-02-03T06:38:10;8.30;99.90
5796;DHT22;2924;51.458;7.046;2023-02-03T06:40:35;8.30;99.90
5796;DHT22;2924;51.458;7.046;2023-02-03T06:43:01;8.30;99.90
5796;DHT22;2924;51.458;7.046;2023-02-03T06:45:27;8.30;99.90
5796;DHT22;2924;51.458;7.046;2023-02-03T06:47:52;8.30;99.90
5796;DHT22;2924;51.458;7.046;2023-02-03T06:50:18;8.30;99.90
5796;DHT22;2924;51.458;7.046;2023-02-03T06:52:44;8.20;99.90
5796;DHT22;2924;51.458;7.046;2023-02-03T06:55:09;8.20;99.90
5796;DHT22;2924;51.458;7.046;2023-02-03T06:57:35;8.20;99.90
5796;DHT22;2924;51.458;7.046;2023-02-03T07:00:07;8.20;99.90
5796;DHT22;2924;51.458;7.046;2023-02-03T07:02:33;8.20;99.90
5796;DHT22;2924;51.458;7.046;2023-02-03T07:04:58;8.20;99.90
5796;DHT22;2924;51.458;7.046;2023-02-03T07:07:24;8.20;99.90
5796;DHT22;2924;51.458;7.046;2023-02-03T07:09:50;8.20;99.90
5796;DHT22;2924;51.458;7.046;2023-02-03T07:12:15;8.20;99.90
5796;DHT22;2924;51.458;7.046;2023-02-03T07:14:41;8.20;99.90
5796;DHT22;2924;51.458;7.046;2023-02-03T07:17:06;8.20;99.90
5796;DHT22;2924;51.458;7.046;2023-02-03T07:19:32;8.20;99.90
5796;DHT22;2924;51.458;7.046;2023-02-03T07:21:58;8.20;99.90
5796;DHT22;2924;51.458;7.046;2023-02-03T07:24:23;8.20;99.90
5796;DHT22;2924;51.458;7.046;2023-02-03T07:26:49;8.30;99.90
5796;DHT22;2924;51.458;7.046;2023-02-03T07:29:15;8.20;99.90
5796;DHT22;2924;51.458;7.046;2023-02-03T07:31:40;8.30;99.90
5796;DHT22;2924;51.458;7.046;2023-02-03T07:34:06;8.30;99.90
5796;DHT22;2924;51.458;7.046;2023-02-03T07:36:32;8.40;99.90
5796;DHT22;2924;51.458;7.046;2023-02-03T07:38:57;8.40;99.90
5796;DHT22;2924;51.458;7.046;2023-02-03T07:41:23;8.40;99.90
5796;DHT22;2924;51.458;7.046;2023-02-03T07:43:49;8.40;99.90
5796;DHT22;2924;51.458;7.046;2023-02-03T07:46:14;8.40;99.90
5796;DHT22;2924;51.458;7.046;2023-02-03T07:48:40;8.40;99.90
5796;DHT22;2924;51.458;7.046;2023-02-03T07:51:06;8.40;99.90
5796;DHT22;2924;51.458;7.046;2023-02-03T07:53:32;8.40;99.90
5796;DHT22;2924;51.458;7.046;2023-02-03T07:56:01;8.40;99.90
5796;DHT22;2924;51.458;7.046;2023-02-03T07:58:28;8.40;99.90
5796;DHT22;2924;51.458;7.046;2023-02-03T08:00:54;8.40;99.90
5796;DHT22;2924;51.458;7.046;2023-02-03T08:03:20;8.50;99.90
5796;DHT22;2924;51.458;7.046;2023-02-03T08:05:46;8.50;99.90
5796;DHT22;2924;51.458;7.046;2023-02-03T08:08:12;8.50;99.90
5796;DHT22;2924;51.458;7.046;2023-02-03T08:10:38;8.50;99.90
5796;DHT22;2924;51.458;7.046;2023-02-03T08:13:04;8.50;99.90
5796;DHT22;2924;51.458;7.046;2023-02-03T08:15:29;8.50;99.90
5796;DHT22;2924;51.458;7.046;2023-02-03T08:17:56;8.50;99.90
5796;DHT22;2924;51.458;7.046;2023-02-03T08:20:21;8.50;99.90
5796;DHT22;2924;51.458;7.046;2023-02-03T08:22:47;8.60;99.90
5796;DHT22;2924;51.458;7.046;2023-02-03T08:25:13;8.50;99.90
5796;DHT22;2924;51.458;7.046;2023-02-03T08:27:39;8.60;99.90
5796;DHT22;2924;51.458;7.046;2023-02-03T08:30:07;8.50;99.90
5796;DHT22;2924;51.458;7.046;2023-02-03T08:32:33;8.60;99.90
5796;DHT22;2924;51.458;7.046;2023-02-03T08:34:59;8.60;99.90
5796;DHT22;2924;51.458;7.046;2023-02-03T08:37:24;8.50;99.90
5796;DHT22;2924;51.458;7.046;2023-02-03T08:39:51;8.60;99.90
5796;DHT22;2924;51.458;7.046;2023-02-03T08:42:17;8.50;99.90
5796;DHT22;2924;51.458;7.046;2023-02-03T08:44:43;8.50;99.90
5796;DHT22;2924;51.458;7.046;2023-02-03T08:47:09;8.50;99.90
5796;DHT22;2924;51.458;7.046;2023-02-03T08:49:35;8.50;99.90
5796;DHT22;2924;51.458;7.046;2023-02-03T08:52:05;8.50;99.90
5796;DHT22;2924;51.458;7.046;2023-02-03T08:54:31;8.50;99.90
5796;DHT22;2924;51.458;7.046;2023-02-03T08:56:57;8.50;99.90
5796;DHT22;2924;51.458;7.046;2023-02-03T08:59:23;8.60;99.90
5796;DHT22;2924;51.458;7.046;2023-02-03T09:01:49;8.60;99.90
5796;DHT22;2924;51.458;7.046;2023-02-03T09:04:16;8.50;99.90
5796;DHT22;2924;51.458;7.046;2023-02-03T09:06:44;8.50;99.90
5796;DHT22;2924;51.458;7.046;2023-02-03T09:09:12;8.60;99.90
5796;DHT22;2924;51.458;7.046;2023-02-03T09:11:40;8.60;99.90
5796;DHT22;2924;51.458;7.046;2023-02-03T09:14:05;8.60;99.90
5796;DHT22;2924;51.458;7.046;2023-02-03T09:16:31;8.60;99.90
5796;DHT22;2924;51.458;7.046;2023-02-03T09:18:57;8.50;99.90
5796;DHT22;2924;51.458;7.046;2023-02-03T09:21:22;8.60;99.90
5796;DHT22;2924;51.458;7.046;2023-02-03T09:23:49;8.60;99.90
5796;DHT22;2924;51.458;7.046;2023-02-03T09:26:15;8.60;99.90
5796;DHT22;2924;51.458;7.046;2023-02-03T09:28:41;8.60;99.90
5796;DHT22;2924;51.458;7.046;2023-02-03T09:31:09;8.60;99.90
5796;DHT22;2924;51.458;7.046;2023-02-03T09:33:35;8.70;99.90
5796;DHT22;2924;51.458;7.046;2023-02-03T09:36:01;8.70;99.90
5796;DHT22;2924;51.458;7.046;2023-02-03T09:38:28;8.70;99.90
5796;DHT22;2924;51.458;7.046;2023-02-03T09:41:16;8.80;99.90
5796;DHT22;2924;51.458;7.046;2023-02-03T09:46:18;8.80;99.90
5796;DHT22;2924;51.458;7.046;2023-02-03T09:48:57;8.80;99.90
5796;DHT22;2924;51.458;7.046;2023-02-03T09:52:13;8.80;99.90
5796;DHT22;2924;51.458;7.046;2023-02-03T09:54:18;8.80;99.90
5796;DHT22;2924;51.458;7.046;2023-02-03T09:56:46;8.80;99.90
5796;DHT22;2924;51.458;7.046;2023-02-03T09:59:17;8.80;99.90
5796;DHT22;2924;51.458;7.046;2023-02-03T10:01:52;8.80;99.90
5796;DHT22;2924;51.458;7.046;2023-02-03T10:04:31;8.80;99.90
5796;DHT22;2924;51.458;7.046;2023-02-03T10:07:27;8.90;99.90
5796;DHT22;2924;51.458;7.046;2023-02-03T10:18:25;9.00;99.90
5796;DHT22;2924;51.458;7.046;2023-02-03T10:21:01;9.00;99.90
5796;DHT22;2924;51.458;7.046;2023-02-03T10:23:36;9.00;99.90
5796;DHT22;2924;51.458;7.046;2023-02-03T10:26:27;9.00;99.90
5796;DHT22;2924;51.458;7.046;2023-02-03T10:29:01;9.00;99.90
5796;DHT22;2924;51.458;7.046;2023-02-03T10:31:32;9.00;99.90
5796;DHT22;2924;51.458;7.046;2023-02-03T10:34:10;9.00;99.90
5796;DHT22;2924;51.458;7.046;2023-02-03T10:36:44;9.00;99.90
5796;DHT22;2924;51.458;7.046;2023-02-03T10:39:32;9.00;99.90
5796;DHT22;2924;51.458;7.046;2023-02-03T10:42:02;9.10;99.90
5796;DHT22;2924;51.458;7.046;2023-02-03T10:47:34;9.10;99.90
5796;DHT22;2924;51.458;7.046;2023-02-03T10:50:06;9.10;99.90
5796;DHT22;2924;51.458;7.046;2023-02-03T10:52:35;9.20;99.90
5796;DHT22;2924;51.458;7.046;2023-02-03T10:55:06;9.20;99.90
5796;DHT22;2924;51.458;7.046;2023-02-03T10:57:35;9.20;99.90
5796;DHT22;2924;51.458;7.046;2023-02-03T11:02:41;9.30;99.90
5796;DHT22;2924;51.458;7.046;2023-02-03T11:07:35;9.30;99.90
5796;DHT22;2924;51.458;7.046;2023-02-03T11:10:01;9.20;99.90
5796;DHT22;2924;51.458;7.046;2023-02-03T11:12:27;9.30;99.90
5796;DHT22;2924;51.458;7.046;2023-02-03T11:14:53;9.30;99.90
5796;DHT22;2924;51.458;7.046;2023-02-03T11:19:46;9.30;99.90
5796;DHT22;2924;51.458;7.046;2023-02-03T11:22:34;9.30;99.90
5796;DHT22;2924;51.458;7.046;2023-02-03T11:25:03;9.30;99.90
5796;DHT22;2924;51.458;7.046;2023-02-03T11:27:31;9.30;99.90
5796;DHT22;2924;51.458;7.046;2023-02-03T11:30:22;9.30;99.90
5796;DHT22;2924;51.458;7.046;2023-02-03T11:32:50;9.30;99.90
5796;DHT22;2924;51.458;7.046;2023-02-03T11:37:43;9.30;99.90
5796;DHT22;2924;51.458;7.046;2023-02-03T11:42:38;9.30;99.90
5796;DHT22;2924;51.458;7.046;2023-02-03T11:45:33;9.30;99.90
5796;DHT22;2924;51.458;7.046;2023-02-03T11:48:58;9.30;99.90
5796;DHT22;2924;51.458;7.046;2023-02-03T11:51:12;9.30;99.90
5796;DHT22;2924;51.458;7.046;2023-02-03T11:53:56;9.40;99.90
5796;DHT22;2924;51.458;7.046;2023-02-03T12:04:48;9.40;99.90
5796;DHT22;2924;51.458;7.046;2023-02-03T12:10:39;9.40;99.90
5796;DHT22;2924;51.458;7.046;2023-02-03T12:16:40;9.40;99.90
5796;DHT22;2924;51.458;7.046;2023-02-03T12:22:20;9.40;99.90
5796;DHT22;2924;51.458;7.046;2023-02-03T12:30:26;9.50;99.90
5796;DHT22;2924;51.458;7.046;2023-02-03T12:32:54;9.50;99.90
5796;DHT22;2924;51.458;7.046;2023-02-03T12:35:26;9.50;99.90
5796;DHT22;2924;51.458;7.046;2023-02-03T12:37:59;9.50;99.90
5796;DHT22;2924;51.458;7.046;2023-02-03T12:40:48;9.50;99.90
5796;DHT22;2924;51.458;7.046;2023-02-03T12:45:54;9.50;99.90
5796;DHT22;2924;51.458;7.046;2023-02-03T12:48:32;9.50;99.90
5796;DHT22;2924;51.458;7.046;2023-02-03T12:51:05;9.50;99.90
5796;DHT22;2924;51.458;7.046;2023-02-03T12:53:40;9.50;99.90
5796;DHT22;2924;51.458;7.046;2023-02-03T12:56:17;9.60;99.90
5796;DHT22;2924;51.458;7.046;2023-02-03T12:58:48;9.50;99.90
5796;DHT22;2924;51.458;7.046;2023-02-03T13:01:25;9.50;99.90
5796;DHT22;2924;51.458;7.046;2023-02-03T13:06:41;9.40;99.90
5796;DHT22;2924;51.458;7.046;2023-02-03T13:12:44;9.30;99.90
5796;DHT22;2924;51.458;7.046;2023-02-03T13:18:37;9.30;99.90
5796;DHT22;2924;51.458;7.046;2023-02-03T13:21:04;9.40;99.90
5796;DHT22;2924;51.458;7.046;2023-02-03T13:23:30;9.50;99.90
5796;DHT22;2924;51.458;7.046;2023-02-03T13:26:24;9.50;99.90
5796;DHT22;2924;51.458;7.046;2023-02-03T13:29:04;9.60;99.90
5796;DHT22;2924;51.458;7.046;2023-02-03T13:32:04;9.60;99.90
5796;DHT22;2924;51.458;7.046;2023-02-03T13:43:04;9.70;99.90
5796;DHT22;2924;51.458;7.046;2023-02-03T13:45:51;9.80;99.90
5796;DHT22;2924;51.458;7.046;2023-02-03T13:48:20;9.90;99.90
5796;DHT22;2924;51.458;7.046;2023-02-03T13:50:49;9.80;99.90
5796;DHT22;2924;51.458;7.046;2023-02-03T13:53:23;9.80;99.90
5796;DHT22;2924;51.458;7.046;2023-02-03T13:56:02;9.80;99.90
5796;DHT22;2924;51.458;7.046;2023-02-03T13:58:30;9.60;99.90
5796;DHT22;2924;51.458;7.046;2023-02-03T14:01:04;9.50;99.90
5796;DHT22;2924;51.458;7.046;2023-02-03T14:05:57;9.20;99.90
5796;DHT22;2924;51.458;7.046;2023-02-03T14:16:50;8.80;99.90
5796;DHT22;2924;51.458;7.046;2023-02-03T14:19:53;8.60;99.90
5796;DHT22;2924;51.458;7.046;2023-02-03T14:22:15;8.40;99.90
5796;DHT22;2924;51.458;7.046;2023-02-03T14:24:44;8.20;99.90
5796;DHT22;2924;51.458;7.046;2023-02-03T14:27:29;8.00;99.90
5796;DHT22;2924;51.458;7.046;2023-02-03T14:30:15;7.90;99.90
5796;DHT22;2924;51.458;7.046;2023-02-03T14:35:18;7.80;99.90
5796;DHT22;2924;51.458;7.046;2023-02-03T14:37:52;7.80;99.90
5796;DHT22;2924;51.458;7.046;2023-02-03T14:59:29;7.60;99.90
5796;DHT22;2924;51.458;7.046;2023-02-03T15:02:06;7.60;99.90
5796;DHT22;2924;51.458;7.046;2023-02-03T15:04:32;7.60;99.90
5796;DHT22;2924;51.458;7.046;2023-02-03T15:06:58;7.60;99.90
5796;DHT22;2924;51.458;7.046;2023-02-03T15:12:17;7.60;99.90
5796;DHT22;2924;51.458;7.046;2023-02-03T15:14:43;7.60;99.90
5796;DHT22;2924;51.458;7.046;2023-02-03T15:19:45;7.60;99.90
5796;DHT22;2924;51.458;7.046;2023-02-03T15:22:36;7.60;99.90
5796;DHT22;2924;51.458;7.046;2023-02-03T15:25:03;7.60;99.90
5796;DHT22;2924;51.458;7.046;2023-02-03T15:27:35;7.60;99.90
5796;DHT22;2924;51.458;7.046;2023-02-03T15:30:24;7.60;99.90
5796;DHT22;2924;51.458;7.046;2023-02-03T15:33:06;7.70;99.90
5796;DHT22;2924;51.458;7.046;2023-02-03T15:35:34;7.70;99.90
5796;DHT22;2924;51.458;7.046;2023-02-03T15:38:06;7.70;99.90
5796;DHT22;2924;51.458;7.046;2023-02-03T15:40:42;7.80;99.90
5796;DHT22;2924;51.458;7.046;2023-02-03T15:43:16;7.80;99.90
5796;DHT22;2924;51.458;7.046;2023-02-03T15:48:32;7.80;99.90
5796;DHT22;2924;51.458;7.046;2023-02-03T15:51:17;7.80;99.90
5796;DHT22;2924;51.458;7.046;2023-02-03T15:54:10;7.80;99.90
5796;DHT22;2924;51.458;7.046;2023-02-03T15:56:44;7.70;99.90
5796;DHT22;2924;51.458;7.046;2023-02-03T15:59:34;7.70;99.90
5796;DHT22;2924;51.458;7.046;2023-02-03T16:02:06;7.70;99.90
5796;DHT22;2924;51.458;7.046;2023-02-03T16:04:36;7.70;99.90
5796;DHT22;2924;51.458;7.046;2023-02-03T16:07:02;7.70;99.90
5796;DHT22;2924;51.458;7.046;2023-02-03T16:09:36;7.70;99.90
5796;DHT22;2924;51.458;7.046;2023-02-03T16:12:13;7.70;99.90
5796;DHT22;2924;51.458;7.046;2023-02-03T16:14:40;7.70;99.90
5796;DHT22;2924;51.458;7.046;2023-02-03T16:22:40;7.60;99.90
5796;DHT22;2924;51.458;7.046;2023-02-03T16:25:20;7.60;99.90
5796;DHT22;2924;51.458;7.046;2023-02-03T16:31:00;7.60;99.90
5796;DHT22;2924;51.458;7.046;2023-02-03T16:33:46;7.60;99.90
5796;DHT22;2924;51.458;7.046;2023-02-03T16:36:31;7.60;99.90
5796;DHT22;2924;51.458;7.046;2023-02-03T16:39:15;7.60;99.90
5796;DHT22;2924;51.458;7.046;2023-02-03T16:42:00;7.60;99.90
5796;DHT22;2924;51.458;7.046;2023-02-03T16:44:49;7.60;99.90
5796;DHT22;2924;51.458;7.046;2023-02-03T16:47:37;7.50;99.90
5796;DHT22;2924;51.458;7.046;2023-02-03T16:50:23;7.60;99.90
5796;DHT22;2924;51.458;7.046;2023-02-03T16:53:13;7.60;99.90
5796;DHT22;2924;51.458;7.046;2023-02-03T16:55:40;7.60;99.90
5796;DHT22;2924;51.458;7.046;2023-02-03T16:58:05;7.60;99.90
5796;DHT22;2924;51.458;7.046;2023-02-03T17:00:31;7.60;99.90
5796;DHT22;2924;51.458;7.046;2023-02-03T17:02:57;7.60;99.90
5796;DHT22;2924;51.458;7.046;2023-02-03T17:05:22;7.60;99.90
5796;DHT22;2924;51.458;7.046;2023-02-03T17:07:48;7.60;99.90
5796;DHT22;2924;51.458;7.046;2023-02-03T17:10:15;7.60;99.90
5796;DHT22;2924;51.458;7.046;2023-02-03T17:12:41;7.60;99.90
5796;DHT22;2924;51.458;7.046;2023-02-03T17:15:07;7.50;99.90
5796;DHT22;2924;51.458;7.046;2023-02-03T17:17:33;7.60;99.90
5796;DHT22;2924;51.458;7.046;2023-02-03T17:19:58;7.50;99.90
5796;DHT22;2924;51.458;7.046;2023-02-03T17:22:25;7.50;99.90
5796;DHT22;2924;51.458;7.046;2023-02-03T17:24:51;7.50;99.90
5796;DHT22;2924;51.458;7.046;2023-02-03T17:27:17;7.50;99.90
5796;DHT22;2924;51.458;7.046;2023-02-03T17:29:43;7.50;99.90
5796;DHT22;2924;51.458;7.046;2023-02-03T17:32:09;7.50;99.90
5796;DHT22;2924;51.458;7.046;2023-02-03T17:34:39;7.50;99.90
5796;DHT22;2924;51.458;7.046;2023-02-03T17:37:05;7.50;99.90
5796;DHT22;2924;51.458;7.046;2023-02-03T17:39:31;7.50;99.90
5796;DHT22;2924;51.458;7.046;2023-02-03T17:41:56;7.50;99.90
5796;DHT22;2924;51.458;7.046;2023-02-03T17:44:22;7.50;99.90
5796;DHT22;2924;51.458;7.046;2023-02-03T17:46:48;7.50;99.90
5796;DHT22;2924;51.458;7.046;2023-02-03T17:49:14;7.50;99.90
5796;DHT22;2924;51.458;7.046;2023-02-03T17:51:39;7.40;99.90
5796;DHT22;2924;51.458;7.046;2023-02-03T17:54:05;7.40;99.90
5796;DHT22;2924;51.458;7.046;2023-02-03T17:56:32;7.50;99.90
5796;DHT22;2924;51.458;7.046;2023-02-03T17:59:01;7.50;99.90
5796;DHT22;2924;51.458;7.046;2023-02-03T18:01:27;7.50;99.90
5796;DHT22;2924;51.458;7.046;2023-02-03T18:03:57;7.50;99.90
5796;DHT22;2924;51.458;7.046;2023-02-03T18:06:26;7.60;99.90
5796;DHT22;2924;51.458;7.046;2023-02-03T18:08:52;7.60;99.90
5796;DHT22;2924;51.458;7.046;2023-02-03T18:11:19;7.50;99.90
5796;DHT22;2924;51.458;7.046;2023-02-03T18:13:47;7.50;99.90
5796;DHT22;2924;51.458;7.046;2023-02-03T18:16:15;7.50;99.90
5796;DHT22;2924;51.458;7.046;2023-02-03T18:18:42;7.50;99.90
5796;DHT22;2924;51.458;7.046;2023-02-03T18:21:11;7.50;99.90
5796;DHT22;2924;51.458;7.046;2023-02-03T18:23:37;7.40;99.90
5796;DHT22;2924;51.458;7.046;2023-02-03T18:26:06;7.30;99.90
5796;DHT22;2924;51.458;7.046;2023-02-03T18:28:32;7.30;99.90
5796;DHT22;2924;51.458;7.046;2023-02-03T18:31:08;7.30;99.90
5796;DHT22;2924;51.458;7.046;2023-02-03T18:33:35;7.20;99.90
5796;DHT22;2924;51.458;7.046;2023-02-03T18:36:01;7.20;99.90
5796;DHT22;2924;51.458;7.046;2023-02-03T18:38:27;7.20;99.90
5796;DHT22;2924;51.458;7.046;2023-02-03T18:40:55;7.10;99.90
5796;DHT22;2924;51.458;7.046;2023-02-03T18:43:21;7.10;99.90
5796;DHT22;2924;51.458;7.046;2023-02-03T18:45:47;7.00;99.90
5796;DHT22;2924;51.458;7.046;2023-02-03T18:48:13;7.00;99.90
5796;DHT22;2924;51.458;7.046;2023-02-03T18:50:42;7.00;99.90
5796;DHT22;2924;51.458;7.046;2023-02-03T18:53:08;6.90;99.90
5796;DHT22;2924;51.458;7.046;2023-02-03T18:55:42;6.80;99.90
5796;DHT22;2924;51.458;7.046;2023-02-03T18:58:08;6.70;99.90